createdAt,value
2019-02-04T00:01:27.624Z,6.97
2019-02-04T00:03:56.192Z,6.67
2019-02-04T00:06:24.364Z,7.33
2019-02-04T00:08:52.529Z,7.23
2019-02-04T00:11:20.661Z,7.67
2019-02-04T00:13:48.828Z,8.45
2019-02-04T00:16:16.977Z,7.70
2019-02-04T00:18:45.524Z,7.47
2019-02-04T00:21:13.697Z,6.73
2019-02-04T00:23:41.836Z,6.10
2019-02-04T00:26:09.964Z,5.83
2019-02-04T00:28:38.209Z,5.83
2019-02-04T00:31:06.464Z,5.60
2019-02-04T00:33:35.100Z,6.40
2019-02-04T00:36:03.277Z,6.33
2019-02-04T00:38:31.443Z,6.40
2019-02-04T00:40:59.579Z,6.93
2019-02-04T00:43:27.759Z,7.43
2019-02-04T00:45:55.924Z,7.47
2019-02-04T00:48:24.079Z,8.17
2019-02-04T00:50:52.443Z,7.17
2019-02-04T00:53:20.620Z,7.30
2019-02-04T00:55:48.765Z,6.17
2019-02-04T00:58:16.941Z,5.53
2019-02-04T01:00:45.084Z,5.50
2019-02-04T01:03:13.415Z,4.90
2019-02-04T01:05:41.981Z,5.27
2019-02-04T01:08:10.119Z,4.43
2019-02-04T01:10:38.266Z,4.60
2019-02-04T01:13:06.423Z,4.50
2019-02-04T01:15:34.564Z,4.70
2019-02-04T01:18:02.697Z,5.30
2019-02-04T01:20:30.871Z,5.13
2019-02-04T01:22:59.004Z,5.20
2019-02-04T01:25:27.151Z,5.70
2019-02-04T01:27:55.299Z,4.80
2019-02-04T01:30:24.105Z,5.03
2019-02-04T01:32:52.255Z,4.83
2019-02-04T01:35:20.420Z,5.77
2019-02-04T01:37:48.552Z,4.37
2019-02-04T01:40:17.960Z,4.53
2019-02-04T01:42:46.128Z,4.60
2019-02-04T01:45:16.034Z,4.77
2019-02-04T01:47:44.165Z,4.67
2019-02-04T01:50:13.740Z,5.40
2019-02-04T01:52:41.875Z,4.97
2019-02-04T01:55:11.180Z,4.70
2019-02-04T01:57:39.337Z,5.23
2019-02-04T02:00:09.101Z,4.77
2019-02-04T02:02:37.224Z,4.90
2019-02-04T02:05:06.067Z,5.10
2019-02-04T02:07:34.304Z,4.93
2019-02-04T02:10:02.791Z,4.73
2019-02-04T02:12:30.960Z,4.70
2019-02-04T02:14:59.088Z,4.83
2019-02-04T02:17:27.224Z,4.83
2019-02-04T02:19:55.388Z,5.10
2019-02-04T02:22:23.938Z,5.30
2019-02-04T02:24:52.099Z,5.00
2019-02-04T02:27:20.237Z,4.63
2019-02-04T02:29:48.380Z,5.40
2019-02-04T02:32:16.514Z,5.07
2019-02-04T02:34:44.679Z,5.20
2019-02-04T02:37:13.138Z,4.87
2019-02-04T02:39:41.267Z,5.27
2019-02-04T02:42:09.449Z,4.83
2019-02-04T02:44:37.586Z,5.13
2019-02-04T02:47:05.720Z,4.87
2019-02-04T02:49:35.937Z,4.70
2019-02-04T02:52:04.076Z,5.10
2019-02-04T02:54:32.420Z,5.77
2019-02-04T02:57:00.592Z,4.90
2019-02-04T02:59:28.736Z,4.83
2019-02-04T03:01:56.874Z,4.53
2019-02-04T03:04:25.046Z,4.90
2019-02-04T03:06:53.172Z,4.60
2019-02-04T03:09:21.824Z,5.40
2019-02-04T03:11:49.982Z,4.70
2019-02-04T03:14:18.120Z,5.00
2019-02-04T03:16:46.253Z,4.67
2019-02-04T03:19:16.464Z,5.03
2019-02-04T03:21:44.722Z,4.90
2019-02-04T03:24:13.261Z,4.67
2019-02-04T03:26:41.423Z,4.83
2019-02-04T03:29:09.553Z,4.57
2019-02-04T03:31:39.328Z,4.80
2019-02-04T03:34:07.508Z,4.33
2019-02-04T03:36:35.646Z,4.40
2019-02-04T03:39:05.709Z,4.07
2019-02-04T03:41:33.876Z,5.30
2019-02-04T03:44:02.010Z,4.20
2019-02-04T03:46:30.168Z,4.43
2019-02-04T03:48:58.338Z,3.87
2019-02-04T03:51:26.471Z,3.87
2019-02-04T03:53:54.607Z,3.27
2019-02-04T03:56:22.761Z,3.93
2019-02-04T03:58:50.895Z,3.43
2019-02-04T04:01:19.038Z,3.40
2019-02-04T04:03:47.207Z,3.67
2019-02-04T04:06:15.332Z,3.70
2019-02-04T04:08:43.473Z,3.27
2019-02-04T04:11:11.667Z,3.07
2019-02-04T04:13:39.797Z,3.10
2019-02-04T04:16:07.927Z,3.40
2019-02-04T04:18:36.084Z,3.95
2019-02-04T04:21:04.211Z,3.30
2019-02-04T04:23:32.347Z,3.33
2019-02-04T04:26:00.949Z,3.43
2019-02-04T04:28:29.067Z,3.73
2019-02-04T04:30:57.211Z,3.37
2019-02-04T04:33:25.371Z,3.93
2019-02-04T04:35:53.515Z,3.77
2019-02-04T04:38:21.651Z,3.83
2019-02-04T04:40:49.809Z,3.60
2019-02-04T04:43:17.944Z,3.90
2019-02-04T04:45:46.083Z,4.00
2019-02-04T04:48:14.250Z,3.57
2019-02-04T04:50:42.375Z,3.90
2019-02-04T04:53:10.511Z,3.90
2019-02-04T04:55:38.666Z,3.20
2019-02-04T04:58:07.400Z,3.97
2019-02-04T05:00:35.533Z,4.60
2019-02-04T05:03:03.700Z,4.27
2019-02-04T05:05:31.827Z,3.63
2019-02-04T05:07:59.959Z,4.37
2019-02-04T05:10:28.119Z,3.73
2019-02-04T05:12:56.267Z,5.43
2019-02-04T05:15:25.371Z,3.97
2019-02-04T05:17:53.547Z,5.23
2019-02-04T05:20:21.684Z,4.17
2019-02-04T05:22:49.828Z,4.40
2019-02-04T05:25:17.988Z,4.00
2019-02-04T05:27:46.139Z,4.97
2019-02-04T05:30:15.347Z,4.57
2019-02-04T05:32:43.511Z,4.40
2019-02-04T05:35:11.735Z,3.83
2019-02-04T05:37:39.858Z,3.63
2019-02-04T05:40:09.500Z,4.10
2019-02-04T05:42:37.649Z,3.70
2019-02-04T05:45:07.446Z,3.63
2019-02-04T05:47:35.611Z,4.03
2019-02-04T05:50:04.211Z,3.93
2019-02-04T05:52:32.356Z,4.47
2019-02-04T05:55:00.547Z,3.93
2019-02-04T05:57:28.767Z,4.23
2019-02-04T05:59:57.516Z,4.30
2019-02-04T06:02:25.684Z,4.40
2019-02-04T06:04:53.816Z,4.83
2019-02-04T06:07:21.944Z,4.20
2019-02-04T06:09:50.109Z,4.70
2019-02-04T06:12:18.238Z,4.73
2019-02-04T06:14:46.368Z,4.70
2019-02-04T06:17:14.523Z,5.07
2019-02-04T06:19:42.663Z,4.00
2019-02-04T06:22:10.812Z,4.93
2019-02-04T06:24:38.986Z,4.63
2019-02-04T06:27:10.116Z,4.43
2019-02-04T06:29:37.029Z,4.80
2019-02-04T06:32:05.495Z,4.13
2019-02-04T06:34:33.657Z,4.20
2019-02-04T06:37:01.780Z,4.30
2019-02-04T06:39:29.952Z,4.67
2019-02-04T06:41:58.109Z,3.93
2019-02-04T06:44:26.240Z,3.97
2019-02-04T06:46:56.785Z,4.00
2019-02-04T06:49:26.033Z,4.30
2019-02-04T06:51:54.155Z,3.63
2019-02-04T06:54:22.324Z,3.20
2019-02-04T06:56:50.471Z,4.23
2019-02-04T06:59:18.600Z,4.23
2019-02-04T07:01:46.761Z,4.87
2019-02-04T07:04:15.963Z,3.73
2019-02-04T07:06:44.103Z,3.60
2019-02-04T07:09:12.266Z,4.37
2019-02-04T07:11:40.412Z,3.63
2019-02-04T07:14:08.548Z,4.07
2019-02-04T07:16:36.743Z,4.00
2019-02-04T07:19:05.279Z,4.03
2019-02-04T07:21:33.396Z,4.30
2019-02-04T07:24:01.877Z,4.33
2019-02-04T07:26:30.027Z,5.03
2019-02-04T07:28:58.155Z,5.30
2019-02-04T07:31:27.863Z,4.50
2019-02-04T07:33:56.000Z,4.53
2019-02-04T07:36:24.128Z,4.43
2019-02-04T07:38:52.306Z,4.53
2019-02-04T07:41:20.442Z,4.33
2019-02-04T07:43:48.564Z,4.57
2019-02-04T07:46:18.129Z,4.73
2019-02-04T07:48:46.267Z,4.63
2019-02-04T07:51:14.797Z,5.30
2019-02-04T07:53:44.597Z,5.40
2019-02-04T07:56:12.733Z,5.17
2019-02-04T07:58:40.878Z,4.93
2019-02-04T08:01:11.343Z,4.40
2019-02-04T08:03:39.477Z,4.13
2019-02-04T08:06:07.928Z,4.60
2019-02-04T08:08:36.215Z,4.73
2019-02-04T08:11:05.883Z,4.70
2019-02-04T08:13:34.019Z,5.00
2019-02-04T08:16:02.257Z,5.03
2019-02-04T08:18:30.404Z,4.90
2019-02-04T08:20:58.549Z,4.60
2019-02-04T08:23:26.712Z,4.43
2019-02-04T08:25:55.200Z,4.47
2019-02-04T08:28:23.332Z,4.77
2019-02-04T08:30:51.495Z,4.60
2019-02-04T08:33:19.626Z,3.97
2019-02-04T08:35:47.768Z,4.53
2019-02-04T08:38:16.220Z,4.37
2019-02-04T08:40:44.349Z,4.00
2019-02-04T08:43:12.481Z,4.60
2019-02-04T08:45:40.663Z,4.50
2019-02-04T08:48:08.796Z,4.45
2019-02-04T08:50:37.035Z,3.93
2019-02-04T08:53:05.201Z,4.07
2019-02-04T08:55:33.951Z,4.00
2019-02-04T08:58:02.086Z,3.73
2019-02-04T09:00:30.248Z,4.30
2019-02-04T09:02:58.388Z,3.77
2019-02-04T09:05:26.537Z,3.90
2019-02-04T09:07:54.691Z,3.60
2019-02-04T09:10:24.460Z,3.83
2019-02-04T09:12:52.895Z,3.77
2019-02-04T09:15:21.048Z,4.07
2019-02-04T09:17:49.180Z,3.80
2019-02-04T09:20:17.592Z,4.00
2019-02-04T09:22:49.012Z,4.20
2019-02-04T09:25:21.171Z,4.63
2019-02-04T09:27:49.931Z,4.10
2019-02-04T09:30:21.902Z,4.40
2019-02-04T09:32:50.102Z,3.73
2019-02-04T09:35:18.936Z,4.30
2019-02-04T09:37:47.068Z,4.23
2019-02-04T09:40:16.978Z,4.30
2019-02-04T09:42:45.737Z,3.83
2019-02-04T09:45:15.500Z,4.20
2019-02-04T09:47:45.791Z,4.13
2019-02-04T09:50:21.761Z,3.73
2019-02-04T09:52:47.920Z,4.03
2019-02-04T09:55:20.087Z,4.85
2019-02-04T09:57:48.348Z,4.10
2019-02-04T10:00:18.104Z,3.33
2019-02-04T10:02:46.359Z,4.37
2019-02-04T10:05:15.356Z,4.73
2019-02-04T10:07:44.588Z,4.27
2019-02-04T10:10:14.439Z,3.97
2019-02-04T10:12:42.612Z,4.27
2019-02-04T10:15:12.384Z,3.60
2019-02-04T10:17:40.547Z,4.53
2019-02-04T10:20:10.358Z,4.40
2019-02-04T10:22:38.498Z,4.93
2019-02-04T10:25:08.367Z,4.17
2019-02-04T10:27:36.863Z,3.97
2019-02-04T10:30:06.639Z,3.77
2019-02-04T10:32:34.773Z,4.30
2019-02-04T10:35:03.095Z,3.80
2019-02-04T10:37:31.228Z,4.20
2019-02-04T10:39:59.348Z,3.97
2019-02-04T10:42:27.728Z,4.20
2019-02-04T10:44:55.862Z,4.53
2019-02-04T10:47:24.058Z,4.40
2019-02-04T10:49:52.311Z,4.07
2019-02-04T10:52:20.463Z,4.47
2019-02-04T10:54:48.603Z,4.73
2019-02-04T10:57:17.069Z,4.13
2019-02-04T10:59:46.433Z,4.07
2019-02-04T11:02:14.548Z,4.07
2019-02-04T11:04:42.721Z,5.00
2019-02-04T11:07:11.774Z,4.90
2019-02-04T11:09:39.879Z,4.93
2019-02-04T11:12:08.115Z,4.63
2019-02-04T11:14:36.824Z,5.30
2019-02-04T11:17:04.949Z,5.20
2019-02-04T11:19:33.101Z,6.00
2019-02-04T11:22:01.805Z,5.07
2019-02-04T11:24:29.979Z,5.30
2019-02-04T11:27:00.975Z,5.70
2019-02-04T11:29:29.372Z,6.90
2019-02-04T11:32:01.863Z,6.27
2019-02-04T11:34:43.254Z,6.40
2019-02-04T11:37:13.246Z,5.83
2019-02-04T11:39:41.918Z,6.60
2019-02-04T11:42:10.099Z,6.63
2019-02-04T11:44:38.244Z,6.10
2019-02-04T11:47:06.389Z,6.67
2019-02-04T11:49:37.915Z,6.40
2019-02-04T11:52:06.325Z,6.43
2019-02-04T11:54:36.140Z,6.17
2019-02-04T11:57:08.508Z,6.77
2019-02-04T11:59:44.664Z,7.20
2019-02-04T12:02:34.116Z,7.20
2019-02-04T12:05:10.303Z,6.90
2019-02-04T12:07:42.019Z,6.80
2019-02-04T12:10:18.012Z,7.27
2019-02-04T12:12:53.557Z,6.77
2019-02-04T12:15:29.115Z,7.63
2019-02-04T12:18:02.032Z,7.00
2019-02-04T12:20:30.168Z,6.87
2019-02-04T12:22:58.357Z,7.93
2019-02-04T12:25:27.998Z,7.80
2019-02-04T12:28:00.637Z,7.47
2019-02-04T12:30:34.343Z,7.67
2019-02-04T12:33:03.656Z,8.13
2019-02-04T12:35:35.343Z,10.13
2019-02-04T12:43:41.682Z,7.73
2019-02-04T12:46:14.789Z,7.00
2019-02-04T12:48:46.286Z,6.87
2019-02-04T12:51:33.434Z,6.93
2019-02-04T12:53:52.949Z,7.40
2019-02-04T12:56:26.417Z,7.30
2019-02-04T12:58:56.973Z,8.47
2019-02-04T13:01:29.400Z,7.67
2019-02-04T13:03:57.719Z,7.23
2019-02-04T13:06:26.333Z,7.23
2019-02-04T13:08:58.036Z,7.07
2019-02-04T13:11:26.191Z,7.27
2019-02-04T13:16:52.973Z,7.43
2019-02-04T13:19:23.602Z,7.87
2019-02-04T13:21:52.259Z,7.80
2019-02-04T13:24:20.361Z,7.37
2019-02-04T13:26:48.550Z,8.20
2019-02-04T13:29:16.715Z,8.10
2019-02-04T13:31:45.825Z,7.70
2019-02-04T13:34:13.969Z,8.17
2019-02-04T13:36:42.443Z,7.87
2019-02-04T13:39:10.577Z,8.50
2019-02-04T13:41:38.836Z,8.20
2019-02-04T13:44:07.004Z,6.40
2019-02-04T13:46:35.137Z,9.60
2019-02-04T13:49:03.280Z,8.60
2019-02-04T13:51:31.595Z,7.90
2019-02-04T13:53:59.782Z,8.63
2019-02-04T13:56:27.907Z,8.77
2019-02-04T13:58:56.061Z,8.73
2019-02-04T14:01:24.196Z,8.07
2019-02-04T14:03:52.328Z,8.63
2019-02-04T14:06:20.503Z,7.57
2019-02-04T14:08:49.060Z,7.83
2019-02-04T14:11:17.204Z,8.93
2019-02-04T14:13:46.237Z,8.67
2019-02-04T14:16:14.450Z,8.57
2019-02-04T14:18:42.583Z,8.83
2019-02-04T14:21:10.849Z,9.00
2019-02-04T14:23:39.211Z,8.60
2019-02-04T14:26:08.221Z,8.60
2019-02-04T14:28:36.394Z,9.17
2019-02-04T14:31:08.056Z,8.17
2019-02-04T14:33:42.234Z,9.13
2019-02-04T14:36:14.436Z,8.50
2019-02-04T14:38:44.862Z,7.97
2019-02-04T14:41:14.641Z,8.77
2019-02-04T14:43:42.846Z,9.17
2019-02-04T14:46:12.611Z,9.73
2019-02-04T14:48:42.413Z,9.57
2019-02-04T14:51:14.099Z,7.77
2019-02-04T14:53:55.805Z,8.57
2019-02-04T14:56:40.489Z,9.23
2019-02-04T14:59:10.295Z,9.37
2019-02-04T15:01:58.304Z,8.83
2019-02-04T15:04:28.160Z,8.20
2019-02-04T15:07:04.052Z,8.13
2019-02-04T15:09:50.490Z,8.57
2019-02-04T15:12:20.267Z,7.70
2019-02-04T15:15:01.963Z,8.07
2019-02-04T15:17:31.411Z,8.03
2019-02-04T15:20:01.194Z,8.43
2019-02-04T15:22:41.034Z,7.80
2019-02-04T15:25:17.310Z,7.83
2019-02-04T15:27:50.477Z,7.80
2019-02-04T15:30:22.892Z,7.97
2019-02-04T15:33:07.937Z,8.30
2019-02-04T15:35:38.199Z,8.50
2019-02-04T15:38:24.424Z,8.07
2019-02-04T15:40:54.191Z,8.90
2019-02-04T15:43:33.201Z,8.87
2019-02-04T15:46:17.968Z,8.10
2019-02-04T15:49:10.004Z,9.37
2019-02-04T15:51:39.608Z,10.00
2019-02-04T15:54:07.747Z,8.77
2019-02-04T15:56:35.921Z,9.33
2019-02-04T15:59:04.044Z,10.13
2019-02-04T16:01:33.123Z,10.30
2019-02-04T16:04:02.906Z,10.63
2019-02-04T16:06:31.332Z,9.47
2019-02-04T16:08:59.462Z,9.70
2019-02-04T16:11:27.634Z,10.00
2019-02-04T16:13:55.776Z,10.50
2019-02-04T16:16:23.914Z,9.73
2019-02-04T16:18:52.084Z,10.30
2019-02-04T16:21:20.323Z,10.47
2019-02-04T16:23:48.402Z,11.00
2019-02-04T16:26:16.702Z,11.60
2019-02-04T16:28:44.852Z,12.70
2019-02-04T16:31:13.055Z,12.57
2019-02-04T16:33:41.224Z,10.77
2019-02-04T16:36:09.368Z,10.60
2019-02-04T16:38:44.437Z,11.10
2019-02-04T16:41:12.582Z,11.97
2019-02-04T16:43:40.732Z,12.07
2019-02-04T16:46:08.896Z,11.23
2019-02-04T16:48:37.064Z,12.50
2019-02-04T16:51:11.723Z,12.53
2019-02-04T16:53:36.592Z,12.57
2019-02-04T16:56:04.724Z,12.93
2019-02-04T16:58:33.016Z,13.27
2019-02-04T17:01:01.176Z,13.60
2019-02-04T17:03:29.352Z,13.87
2019-02-04T17:05:57.491Z,14.57
2019-02-04T17:08:25.660Z,12.67
2019-02-04T17:10:53.803Z,13.93
2019-02-04T17:13:21.947Z,14.30
2019-02-04T17:15:50.104Z,13.10
2019-02-04T17:18:18.334Z,14.67
2019-02-04T17:20:46.495Z,14.63
2019-02-04T17:23:21.955Z,14.60
2019-02-04T17:25:44.465Z,15.17
2019-02-04T17:28:12.615Z,16.17
2019-02-04T17:30:40.781Z,15.67
2019-02-04T17:33:08.919Z,17.13
2019-02-04T17:35:37.060Z,16.80
2019-02-04T17:38:05.233Z,17.27
2019-02-04T17:40:33.368Z,16.03
2019-02-04T17:43:01.504Z,18.63
2019-02-04T17:45:29.680Z,18.60
2019-02-04T17:47:58.749Z,16.50
2019-02-04T17:50:27.181Z,15.87
2019-02-04T17:52:55.350Z,17.47
2019-02-04T17:55:27.334Z,17.23
2019-02-04T17:57:55.699Z,16.23
2019-02-04T18:00:42.702Z,16.93
2019-02-04T18:03:10.857Z,17.77
2019-02-04T18:05:38.945Z,16.57
2019-02-04T18:08:07.309Z,16.63
2019-02-04T18:10:35.448Z,15.97
2019-02-04T18:13:03.596Z,16.47
2019-02-04T18:15:31.768Z,18.50
2019-02-04T18:17:59.904Z,18.80
2019-02-04T18:20:28.054Z,17.27
2019-02-04T18:22:56.229Z,17.80
2019-02-04T18:25:24.386Z,15.43
2019-02-04T18:27:52.536Z,17.70
2019-02-04T18:30:21.877Z,16.53
2019-02-04T18:32:50.008Z,17.00
2019-02-04T18:35:18.163Z,17.70
2019-02-04T18:37:46.326Z,17.93
2019-02-04T18:40:16.101Z,18.57
2019-02-04T18:42:44.438Z,17.90
2019-02-04T18:45:23.444Z,17.33
2019-02-04T18:47:51.586Z,16.70
2019-02-04T18:50:20.406Z,17.90
2019-02-04T18:52:49.175Z,19.50
2019-02-04T18:55:18.943Z,18.33
2019-02-04T18:57:47.084Z,19.10
2019-02-04T19:00:17.141Z,20.03
2019-02-04T19:02:45.301Z,18.67
2019-02-04T19:05:13.462Z,19.00
2019-02-04T19:07:42.212Z,20.43
2019-02-04T19:10:14.878Z,19.63
2019-02-04T19:12:43.021Z,19.90
2019-02-04T19:15:15.796Z,19.07
2019-02-04T19:17:44.016Z,20.10
2019-02-04T19:20:13.849Z,22.83
2019-02-04T19:22:42.032Z,20.43
2019-02-04T19:25:11.543Z,20.20
2019-02-04T19:27:39.680Z,21.77
2019-02-04T19:30:15.433Z,22.53
2019-02-04T19:32:43.587Z,20.83
2019-02-04T19:35:12.120Z,21.63
2019-02-04T19:37:40.313Z,21.93
2019-02-04T19:40:10.134Z,23.10
2019-02-04T19:42:38.278Z,22.23
2019-02-04T19:45:08.093Z,24.03
2019-02-04T19:47:36.232Z,23.23
2019-02-04T19:50:06.007Z,22.60
2019-02-04T19:52:34.172Z,23.80
2019-02-04T19:55:02.320Z,25.50
2019-02-04T19:57:30.452Z,23.83
2019-02-04T19:59:58.622Z,24.87
2019-02-04T20:02:26.777Z,24.00
2019-02-04T20:04:54.924Z,23.97
2019-02-04T20:07:23.214Z,25.37
2019-02-04T20:09:51.349Z,25.77
2019-02-04T20:12:19.497Z,25.83
2019-02-04T20:14:47.680Z,25.97
2019-02-04T20:17:15.839Z,25.90
2019-02-04T20:19:44.104Z,26.10
2019-02-04T20:22:12.279Z,25.67
2019-02-04T20:24:40.596Z,25.93
2019-02-04T20:27:08.880Z,26.60
2019-02-04T20:29:37.057Z,27.33
2019-02-04T20:32:05.205Z,26.73
2019-02-04T20:34:33.353Z,27.13
2019-02-04T20:37:01.524Z,28.10
2019-02-04T20:39:29.672Z,28.27
2019-02-04T20:41:57.884Z,29.87
2019-02-04T20:44:26.064Z,27.87
2019-02-04T20:46:54.233Z,27.80
2019-02-04T20:49:22.416Z,29.07
2019-02-04T20:51:52.332Z,29.53
2019-02-04T20:54:21.359Z,29.23
2019-02-04T20:56:50.276Z,27.77
2019-02-04T20:59:18.480Z,28.77
2019-02-04T21:01:46.588Z,28.63
2019-02-04T21:04:14.749Z,30.27
2019-02-04T21:06:42.932Z,28.63
2019-02-04T21:09:11.074Z,28.77
2019-02-04T21:11:39.240Z,29.23
2019-02-04T21:14:07.542Z,29.07
2019-02-04T21:16:35.697Z,28.60
2019-02-04T21:19:03.892Z,28.77
2019-02-04T21:21:32.068Z,29.87
2019-02-04T21:24:00.228Z,28.50
2019-02-04T21:26:28.406Z,31.13
2019-02-04T21:28:58.122Z,29.60
2019-02-04T21:31:26.238Z,29.23
2019-02-04T21:33:54.394Z,31.60
2019-02-04T21:36:22.585Z,30.10
2019-02-04T21:38:50.728Z,30.97
2019-02-04T21:41:18.870Z,30.93
2019-02-04T21:43:47.048Z,31.50
2019-02-04T21:46:15.294Z,31.10
2019-02-04T21:48:43.442Z,32.37
2019-02-04T21:51:11.620Z,30.97
2019-02-04T21:53:39.773Z,32.70
2019-02-04T21:56:07.919Z,31.47
2019-02-04T21:58:36.131Z,31.40
2019-02-04T22:01:04.268Z,31.40
2019-02-04T22:03:32.449Z,32.10
2019-02-04T22:06:00.623Z,30.57
2019-02-04T22:08:28.789Z,32.80
2019-02-04T22:10:57.264Z,31.37
2019-02-04T22:13:25.536Z,31.63
2019-02-04T22:15:53.783Z,31.27
2019-02-04T22:18:21.923Z,30.27
2019-02-04T22:20:50.533Z,32.67
2019-02-04T22:23:19.049Z,31.63
2019-02-04T22:25:47.328Z,32.03
2019-02-04T22:28:15.499Z,32.80
2019-02-04T22:30:44.141Z,31.17
2019-02-04T22:33:12.309Z,35.43
2019-02-04T22:35:40.500Z,32.97
2019-02-04T22:38:08.661Z,31.33
2019-02-04T22:40:36.858Z,30.80
2019-02-04T22:43:05.036Z,32.10
2019-02-04T22:45:34.210Z,31.67
2019-02-04T22:48:02.650Z,31.50
2019-02-04T22:50:31.007Z,31.50
2019-02-04T22:53:02.183Z,32.17
2019-02-04T22:55:32.173Z,30.53
2019-02-04T22:57:59.368Z,31.80
2019-02-04T23:00:49.068Z,31.60
2019-02-04T23:03:18.729Z,31.97
2019-02-04T23:05:46.894Z,33.60
2019-02-04T23:08:15.053Z,32.27
2019-02-04T23:10:43.227Z,30.97
2019-02-04T23:13:11.372Z,31.63
2019-02-04T23:15:39.532Z,30.63
2019-02-04T23:18:08.149Z,30.70
2019-02-04T23:20:37.387Z,30.53
2019-02-04T23:23:08.841Z,31.67
2019-02-04T23:25:43.369Z,30.03
2019-02-04T23:28:13.585Z,31.53
2019-02-04T23:30:44.423Z,29.60
2019-02-04T23:33:16.178Z,30.53
2019-02-04T23:35:48.676Z,30.47
2019-02-04T23:38:19.390Z,30.60
2019-02-04T23:40:47.767Z,31.23
2019-02-04T23:43:16.363Z,30.33
2019-02-04T23:45:44.504Z,31.57
2019-02-04T23:48:12.806Z,31.27
2019-02-04T23:50:40.956Z,31.10
2019-02-04T23:53:09.138Z,33.37
2019-02-04T23:55:37.290Z,30.97
2019-02-04T23:58:05.434Z,29.83
